createdAt,value
2023-05-18T00:00:34.943Z,0
2023-05-18T00:05:39.129Z,0
2023-05-18T00:10:43.284Z,0
2023-05-18T00:15:47.589Z,0
2023-05-18T00:20:51.597Z,0
2023-05-18T00:25:55.793Z,0
2023-05-18T00:30:59.980Z,0
2023-05-18T00:36:04.107Z,0
2023-05-18T00:41:08.300Z,0
2023-05-18T00:46:12.484Z,0
2023-05-18T00:51:16.611Z,0
2023-05-18T00:56:20.765Z,0
2023-05-18T01:01:24.975Z,0
2023-05-18T01:06:29.143Z,0
2023-05-18T01:11:33.253Z,0
2023-05-18T01:16:37.492Z,0
2023-05-18T01:21:41.569Z,0
2023-05-18T01:26:45.751Z,0
2023-05-18T01:31:49.888Z,0
2023-05-18T01:36:54.050Z,0
2023-05-18T01:41:58.258Z,0
2023-05-18T01:47:02.417Z,0
2023-05-18T01:52:06.553Z,0
2023-05-18T01:57:10.753Z,0
2023-05-18T02:02:15.025Z,0
2023-05-18T02:07:19.040Z,0
2023-05-18T02:12:23.249Z,0
2023-05-18T02:17:27.378Z,0
2023-05-18T02:22:31.520Z,0
2023-05-18T02:27:35.690Z,0
2023-05-18T02:32:39.942Z,0
2023-05-18T02:37:44.081Z,0
2023-05-18T02:42:48.176Z,0
2023-05-18T02:47:52.398Z,0
2023-05-18T02:52:56.498Z,0
2023-05-18T02:58:00.708Z,0
2023-05-18T03:03:04.995Z,0
2023-05-18T03:08:09.033Z,2
2023-05-18T03:13:13.173Z,5
2023-05-18T03:18:17.329Z,10
2023-05-18T03:23:21.497Z,20
2023-05-18T03:28:25.687Z,39
2023-05-18T03:33:29.860Z,69
2023-05-18T03:38:33.978Z,111
2023-05-18T03:43:38.159Z,171
2023-05-18T03:48:42.302Z,253
2023-05-18T03:53:46.486Z,356
2023-05-18T03:58:50.620Z,481
2023-05-18T04:03:55.013Z,618
2023-05-18T04:09:01.025Z,766
2023-05-18T04:14:03.146Z,920
2023-05-18T04:19:08.333Z,1069
2023-05-18T04:24:11.483Z,1224
2023-05-18T04:29:15.680Z,1374
2023-05-18T04:34:17.960Z,1518
2023-05-18T04:39:22.072Z,1648
2023-05-18T04:44:26.230Z,1770
2023-05-18T04:49:30.400Z,1880
2023-05-18T04:54:34.545Z,1980
2023-05-18T04:59:38.708Z,2070
2023-05-18T05:04:42.877Z,2161
2023-05-18T05:09:47.227Z,2245
2023-05-18T05:14:51.201Z,2313
2023-05-18T05:19:55.378Z,2385
2023-05-18T05:24:59.580Z,2450
2023-05-18T05:30:03.712Z,2507
2023-05-18T05:35:07.880Z,2558
2023-05-18T05:40:12.092Z,2608
2023-05-18T05:45:16.237Z,2650
2023-05-18T05:50:20.354Z,2698
2023-05-18T05:55:24.532Z,2746
2023-05-18T06:00:28.718Z,2792
2023-05-18T06:05:33.107Z,2850
2023-05-18T06:10:37.026Z,2903
2023-05-18T06:15:41.185Z,2957
2023-05-18T06:20:45.376Z,3005
2023-05-18T06:25:49.496Z,3040
2023-05-18T06:30:53.658Z,3054
2023-05-18T06:35:57.841Z,3070
2023-05-18T06:41:01.995Z,3083
2023-05-18T06:46:06.187Z,3081
2023-05-18T06:51:10.350Z,3096
2023-05-18T06:56:14.508Z,3103
2023-05-18T07:01:18.676Z,3129
2023-05-18T07:06:22.804Z,3145
2023-05-18T07:11:29.525Z,3141
2023-05-18T07:16:31.192Z,3154
2023-05-18T07:21:35.307Z,3148
2023-05-18T07:26:39.425Z,3212
2023-05-18T07:31:43.621Z,3229
2023-05-18T07:36:47.782Z,3223
2023-05-18T07:41:51.923Z,3231
2023-05-18T07:46:56.158Z,3233
2023-05-18T07:52:00.279Z,3228
2023-05-18T07:57:04.398Z,3211
2023-05-18T08:02:08.597Z,3200
2023-05-18T08:07:12.750Z,3223
2023-05-18T08:12:16.913Z,3195
2023-05-18T08:17:21.123Z,3204
2023-05-18T08:22:25.289Z,3215
2023-05-18T08:27:29.392Z,3193
2023-05-18T08:32:33.598Z,3225
2023-05-18T08:37:37.700Z,3224
2023-05-18T08:42:49.919Z,3222
2023-05-18T08:47:46.091Z,3229
2023-05-18T08:52:50.173Z,3282
2023-05-18T08:57:54.331Z,3281
2023-05-18T09:03:00.610Z,3296
2023-05-18T09:08:02.663Z,3286
2023-05-18T09:13:06.794Z,3305
2023-05-18T09:18:11.057Z,3310
2023-05-18T09:23:15.147Z,3330
2023-05-18T09:28:19.290Z,3375
2023-05-18T09:33:23.724Z,3397
2023-05-18T09:38:27.633Z,3440
2023-05-18T09:43:31.750Z,3490
2023-05-18T09:48:35.974Z,3518
2023-05-18T09:53:40.093Z,3540
2023-05-18T09:58:44.246Z,3619
2023-05-18T10:03:46.592Z,3544
2023-05-18T10:08:50.735Z,3556
2023-05-18T10:13:54.903Z,3856
2023-05-18T10:18:59.032Z,4036
2023-05-18T10:24:03.185Z,4040
2023-05-18T10:29:07.328Z,3893
2023-05-18T10:34:11.496Z,3719
2023-05-18T10:39:15.670Z,3597
2023-05-18T10:44:19.816Z,3874
2023-05-18T10:49:23.968Z,3820
2023-05-18T10:54:28.131Z,3761
2023-05-18T10:59:34.433Z,3785
2023-05-18T11:04:36.485Z,4023
2023-05-18T11:09:40.622Z,4122
2023-05-18T11:14:44.793Z,3846
2023-05-18T11:19:48.921Z,3831
2023-05-18T11:24:53.066Z,3828
2023-05-18T11:30:11.663Z,3781
2023-05-18T11:35:01.389Z,3903
2023-05-18T11:40:08.491Z,3992
2023-05-18T11:45:09.818Z,4217
2023-05-18T11:50:13.909Z,4490
2023-05-18T11:55:18.024Z,4053
2023-05-18T12:00:22.220Z,4232
2023-05-18T12:05:26.373Z,4158
2023-05-18T12:10:30.646Z,4207
2023-05-18T12:15:34.674Z,4272
2023-05-18T12:20:38.854Z,4189
2023-05-18T12:25:42.974Z,4394
2023-05-18T12:30:47.209Z,4432
2023-05-18T12:35:51.354Z,5593
2023-05-18T12:40:55.444Z,5590
2023-05-18T12:45:59.627Z,6325
2023-05-18T12:56:07.950Z,5035
2023-05-18T13:01:12.141Z,4961
2023-05-18T13:06:16.265Z,4976
2023-05-18T13:11:20.414Z,5077
2023-05-18T13:16:24.659Z,6608
2023-05-18T13:21:28.851Z,5370
2023-05-18T13:26:33.039Z,5076
2023-05-18T13:31:37.105Z,5170
2023-05-18T13:36:41.252Z,5412
2023-05-18T13:41:45.423Z,5064
2023-05-18T13:46:49.552Z,5440
2023-05-18T13:51:53.683Z,5692
2023-05-18T13:56:57.879Z,5510
2023-05-18T14:02:02.054Z,5432
2023-05-18T14:07:06.209Z,6526
2023-05-18T14:12:10.352Z,6720
2023-05-18T14:17:14.554Z,7339
2023-05-18T14:27:22.832Z,36498
2023-05-18T14:32:27.022Z,35913
2023-05-18T14:37:31.128Z,37850
2023-05-18T14:42:35.317Z,37373
2023-05-18T14:47:39.529Z,34393
2023-05-18T14:52:43.990Z,37088
2023-05-18T14:57:47.869Z,35908
2023-05-18T15:02:52.042Z,34147
2023-05-18T15:07:56.113Z,31841
2023-05-18T15:13:00.323Z,30889
2023-05-18T15:18:04.528Z,30564
2023-05-18T15:23:08.625Z,29317
2023-05-18T15:28:12.746Z,27237
2023-05-18T15:33:15.132Z,25357
2023-05-18T15:38:19.133Z,27707
2023-05-18T15:43:23.353Z,26736
2023-05-18T15:48:27.462Z,24027
2023-05-18T15:53:31.651Z,23906
2023-05-18T15:58:35.794Z,22153
2023-05-18T16:03:38.186Z,23412
2023-05-18T16:08:42.215Z,22837
2023-05-18T16:13:46.386Z,21398
2023-05-18T16:18:50.596Z,19806
2023-05-18T16:23:54.740Z,18346
2023-05-18T16:28:58.859Z,18528
2023-05-18T16:34:03.015Z,16844
2023-05-18T16:39:07.171Z,17090
2023-05-18T16:44:11.356Z,17208
2023-05-18T16:49:15.499Z,16322
2023-05-18T16:54:19.667Z,15256
2023-05-18T16:59:23.819Z,14722
2023-05-18T17:04:27.948Z,13579
2023-05-18T17:09:32.107Z,14186
2023-05-18T17:14:36.293Z,13547
2023-05-18T17:19:40.459Z,12518
2023-05-18T17:24:44.610Z,10830
2023-05-18T17:29:48.754Z,9572
2023-05-18T17:34:52.898Z,8793
2023-05-18T17:39:57.080Z,8561
2023-05-18T17:45:01.235Z,5811
2023-05-18T17:50:05.413Z,3085
2023-05-18T17:55:09.594Z,2880
2023-05-18T18:00:13.753Z,2681
2023-05-18T18:05:17.858Z,2474
2023-05-18T18:10:22.218Z,2246
2023-05-18T18:15:26.192Z,2103
2023-05-18T18:20:32.560Z,2005
2023-05-18T18:25:34.526Z,1872
2023-05-18T18:30:38.793Z,1704
2023-05-18T18:35:42.853Z,1511
2023-05-18T18:40:47.013Z,1286
2023-05-18T18:45:51.164Z,1105
2023-05-18T18:50:55.329Z,946
2023-05-18T18:55:59.469Z,784
2023-05-18T19:01:03.674Z,621
2023-05-18T19:06:07.788Z,480
2023-05-18T19:11:11.958Z,360
2023-05-18T19:16:16.188Z,257
2023-05-18T19:21:20.331Z,176
2023-05-18T19:26:24.474Z,120
2023-05-18T19:31:28.623Z,77
2023-05-18T19:36:32.743Z,46
2023-05-18T19:41:36.924Z,25
2023-05-18T19:46:41.065Z,12
2023-05-18T19:51:45.299Z,5
2023-05-18T19:56:49.418Z,3
2023-05-18T20:01:53.604Z,1
2023-05-18T20:06:57.715Z,0
2023-05-18T20:12:01.876Z,0
2023-05-18T20:17:06.058Z,0
2023-05-18T20:22:10.188Z,0
2023-05-18T20:27:14.377Z,0
2023-05-18T20:32:18.522Z,0
2023-05-18T20:37:22.680Z,0
2023-05-18T20:42:26.860Z,0
2023-05-18T20:47:31.007Z,0
2023-05-18T20:52:35.179Z,0
2023-05-18T20:57:39.310Z,0
2023-05-18T21:02:43.552Z,0
2023-05-18T21:07:47.686Z,0
2023-05-18T21:12:51.787Z,0
2023-05-18T21:17:56.043Z,0
2023-05-18T21:23:00.236Z,0
2023-05-18T21:28:04.290Z,0
2023-05-18T21:33:06.616Z,0
2023-05-18T21:38:10.764Z,0
2023-05-18T21:43:14.932Z,0
2023-05-18T21:48:19.086Z,0
2023-05-18T21:53:23.228Z,0
2023-05-18T21:58:27.362Z,0
2023-05-18T22:03:31.512Z,0
2023-05-18T22:08:35.719Z,0
2023-05-18T22:13:39.872Z,0
2023-05-18T22:18:44.117Z,0
2023-05-18T22:23:48.168Z,0
2023-05-18T22:28:52.390Z,0
2023-05-18T22:33:56.481Z,0
2023-05-18T22:39:00.696Z,0
2023-05-18T22:44:04.864Z,0
2023-05-18T22:49:08.985Z,0
2023-05-18T22:54:13.152Z,0
2023-05-18T22:59:17.316Z,0
2023-05-18T23:04:21.487Z,0
2023-05-18T23:09:25.640Z,0
2023-05-18T23:14:29.782Z,0
2023-05-18T23:19:33.966Z,0
2023-05-18T23:24:38.115Z,0
2023-05-18T23:29:42.281Z,0
2023-05-18T23:34:46.417Z,0
2023-05-18T23:39:50.615Z,0
2023-05-18T23:44:54.757Z,0
2023-05-18T23:49:58.956Z,0
2023-05-18T23:55:03.094Z,0
